Time;durP1;ratioP1;P1;durP2;ratioP2;P2;SDS_P1;SDS_P2;PMS_P1;PMS_P2;Temp;Humidity;BMP_temperature;BMP_pressure;BME280_temperature;BME280_humidity;BME280_pressure;Samples;Min_cycle;Max_cycle;Signal;HPM_P1;HPM_P2
2022/09/18 00:01:32;;;;;;;4.20;0.52;;;;;;;12.37;80.31;101781.97;5017705;28;96671;-30
2022/09/18 00:04:03;;;;;;;5.05;0.68;;;;;;;12.36;79.92;101780.22;5015721;28;101131;-31
2022/09/18 00:06:32;;;;;;;0.32;0.22;;;;;;;12.32;80.60;101768.63;5017002;28;99257;-31
2022/09/18 00:08:59;;;;;;;4.72;0.77;;;;;;;12.32;80.85;101768.63;5016024;28;96661;-30
2022/09/18 00:11:27;;;;;;;1.83;0.35;;;;;;;12.35;80.19;101771.19;5033122;28;96818;-30
2022/09/18 00:13:52;;;;;;;1.30;0.43;;;;;;;12.36;80.76;101767.50;5015490;28;101290;-29
2022/09/18 00:16:20;;;;;;;5.38;0.40;;;;;;;12.36;80.65;101761.19;5015618;28;101094;-29
2022/09/18 00:18:46;;;;;;;1.25;0.40;;;;;;;12.40;81.13;101766.38;5015102;28;96616;-30
2022/09/18 00:21:18;;;;;;;2.60;0.60;;;;;;;12.40;81.17;101762.78;5015754;28;96605;-30
2022/09/18 00:23:44;;;;;;;0.52;0.03;;;;;;;12.38;80.52;101764.72;5015426;28;101141;-30
2022/09/18 00:26:11;;;;;;;1.55;0.35;;;;;;;12.40;80.40;101776.38;5015130;28;101036;-30
2022/09/18 00:28:37;;;;;;;0.85;0.28;;;;;;;12.40;80.37;101765.50;5015723;28;96682;-30
2022/09/18 00:31:09;;;;;;;0.73;0.15;;;;;;;12.32;80.42;101757.75;5017249;28;96758;-29
2022/09/18 00:33:36;;;;;;;0.30;0.00;;;;;;;12.36;80.15;101759.34;5016749;28;97961;-31
2022/09/18 00:36:03;;;;;;;2.33;0.20;;;;;;;12.37;80.36;101761.13;5015672;28;101293;-31
2022/09/18 00:38:32;;;;;;;2.17;0.30;;;;;;;12.36;80.43;101764.78;5015750;28;96758;-30
2022/09/18 00:41:01;;;;;;;0.30;0.13;;;;;;;12.38;80.57;101762.00;5015627;28;96863;-30
2022/09/18 00:43:29;;;;;;;2.85;0.20;;;;;;;12.37;80.18;101752.06;5015712;28;98023;-29
2022/09/18 00:46:25;;;;;;;0.45;0.10;;;;;;;12.40;80.47;101760.06;5014999;28;101046;-30
2022/09/18 00:49:14;;;;;;;0.32;0.13;;;;;;;12.42;80.61;101759.03;5016537;28;96566;-30
2022/09/18 00:51:41;;;;;;;1.00;0.35;;;;;;;12.40;80.78;101752.78;5015488;28;96759;-30
2022/09/18 00:54:12;;;;;;;0.10;0.05;;;;;;;12.40;80.57;101754.66;5015071;28;101015;-31
2022/09/18 00:56:52;;;;;;;0.75;0.25;;;;;;;12.40;80.49;101754.66;5016845;28;97807;-31
2022/09/18 00:59:22;;;;;;;1.98;0.20;;;;;;;12.40;80.27;101771.81;5015258;28;96618;-30
2022/09/18 01:01:47;;;;;;;0.75;0.20;;;;;;;12.39;80.40;101782.75;5015953;28;96828;-30
2022/09/18 01:04:13;;;;;;;0.77;0.05;;;;;;;12.32;80.50;101774.97;5016208;28;101240;-30
2022/09/18 01:07:01;;;;;;;0.47;0.20;;;;;;;12.28;80.60;101767.06;5016146;28;99524;-30
2022/09/18 01:09:41;;;;;;;0.05;0.03;;;;;;;12.23;80.73;101764.59;5014605;28;96558;-30
2022/09/18 01:12:36;;;;;;;2.58;0.17;;;;;;;12.24;80.66;101771.75;5016100;28;96976;-30
2022/09/18 01:15:14;;;;;;;0.20;0.10;;;;;;;12.27;80.56;101770.72;5014746;28;101099;-30
2022/09/18 01:18:04;;;;;;;2.88;0.17;;;;;;;12.28;80.61;101757.06;5014835;28;100874;-30
2022/09/18 01:21:07;;;;;;;1.08;0.20;;;;;;;12.29;80.64;101747.94;5014309;28;96676;-29
2022/09/18 01:24:05;;;;;;;0.88;0.25;;;;;;;12.35;80.98;101762.13;5014624;28;96806;-29
2022/09/18 01:26:48;;;;;;;2.17;0.28;;;;;;;12.32;80.49;101758.66;5015745;28;99338;-30
2022/09/18 01:29:23;;;;;;;2.17;0.28;;;;;;;12.32;80.62;101757.75;5014914;28;100813;-30
2022/09/18 01:31:57;;;;;;;1.85;0.30;;;;;;;12.30;80.63;101755.13;5014875;28;96701;-30
2022/09/18 01:34:34;;;;;;;0.10;0.10;;;;;;;12.35;80.03;101748.56;5014920;28;96651;-30
2022/09/18 01:37:17;;;;;;;1.42;0.13;;;;;;;12.36;80.56;101744.91;5013897;28;101390;-30
2022/09/18 01:39:55;;;;;;;2.53;0.10;;;;;;;12.36;80.32;101743.06;5014473;28;101471;-30
2022/09/18 01:42:24;;;;;;;1.08;0.30;;;;;;;12.33;80.84;101730.50;5031419;28;97223;-30
2022/09/18 01:44:53;;;;;;;0.10;0.00;;;;;;;12.31;80.08;101731.56;5031506;28;96883;-31
2022/09/18 01:47:21;;;;;;;5.25;0.32;;;;;;;12.31;80.56;101734.28;5015642;28;97961;-31
2022/09/18 01:49:49;;;;;;;0.90;0.32;;;;;;;12.29;81.09;101728.03;5013923;28;101012;-29
2022/09/18 01:52:38;;;;;;;0.10;0.00;;;;;;;12.30;80.77;101735.25;5031390;28;96544;-33
2022/09/18 01:55:08;;;;;;;0.00;0.00;;;;;;;12.29;80.52;101725.31;5013931;28;96905;-30
2022/09/18 01:57:43;;;;;;;0.63;0.10;;;;;;;12.28;80.24;101726.31;5015670;28;98100;-30
2022/09/18 02:00:10;;;;;;;0.00;0.00;;;;;;;12.24;80.88;101725.56;5030768;28;100497;-30
2022/09/18 02:02:58;;;;;;;0.30;0.10;;;;;;;12.28;80.46;101724.47;5015213;28;96706;-32
2022/09/18 02:05:29;;;;;;;0.00;0.00;;;;;;;12.26;80.58;101722.78;5014394;28;96782;-29
2022/09/18 02:07:54;;;;;;;0.13;0.03;;;;;;;12.26;81.04;101726.38;5013883;28;101076;-29
2022/09/18 02:10:22;;;;;;;0.47;0.20;;;;;;;12.24;80.16;101720.16;5015720;28;97230;-30
2022/09/18 02:12:47;;;;;;;0.28;0.05;;;;;;;12.23;80.37;101712.97;5030690;28;96632;-31
2022/09/18 02:15:14;;;;;;;0.13;0.10;;;;;;;12.24;80.28;101708.41;5015610;28;96811;-30
2022/09/18 02:17:47;;;;;;;1.02;0.25;;;;;;;12.24;80.80;101714.72;5013615;28;101154;-30
2022/09/18 02:20:19;;;;;;;0.00;0.00;;;;;;;12.24;80.99;101713.84;5013677;28;101134;-29
2022/09/18 02:22:48;;;;;;;0.00;0.00;;;;;;;12.26;80.46;101718.22;5014197;28;96583;-30
2022/09/18 02:25:20;;;;;;;0.32;0.17;;;;;;;12.25;81.41;101734.59;5013648;28;96802;-29
2022/09/18 02:27:48;;;;;;;0.00;0.00;;;;;;;12.22;80.73;101742.91;5030072;28;101133;-29
2022/09/18 02:30:14;;;;;;;1.55;0.20;;;;;;;12.23;80.96;101736.53;5013370;28;100884;-30
2022/09/18 02:32:40;;;;;;;0.75;0.43;;;;;;;12.26;81.25;101728.22;5015491;28;96466;-31
2022/09/18 02:35:07;;;;;;;0.05;0.00;;;;;;;12.28;80.69;101724.47;5015442;28;96709;-30
2022/09/18 02:37:51;;;;;;;0.28;0.00;;;;;;;12.31;81.06;101720.69;5013385;28;101496;-29
2022/09/18 02:40:27;;;;;;;0.57;0.28;;;;;;;12.30;81.39;101722.53;5014895;28;98387;-29
2022/09/18 02:42:55;;;;;;;1.00;0.25;;;;;;;12.28;80.90;101724.47;5013726;28;96636;-31
2022/09/18 02:45:52;;;;;;;1.45;0.05;;;;;;;12.28;81.02;101712.72;5015638;28;96842;-30
2022/09/18 02:48:36;;;;;;;1.42;0.22;;;;;;;12.30;80.91;101719.81;5013278;28;100812;-30
2022/09/18 02:51:20;;;;;;;0.28;0.13;;;;;;;12.29;81.07;101704.47;5014783;28;97862;-30
2022/09/18 02:54:12;;;;;;;3.95;0.32;;;;;;;12.29;81.44;101707.19;5013061;28;96984;-30
2022/09/18 02:56:40;;;;;;;0.63;0.20;;;;;;;12.30;80.72;101706.25;5015219;28;96468;-30
2022/09/18 02:59:13;;;;;;;3.20;0.30;;;;;;;12.31;80.59;101713.41;5014273;28;111972;-29
2022/09/18 03:01:42;;;;;;;1.98;0.22;;;;;;;12.32;80.66;101704.31;5013590;28;100688;-29
2022/09/18 03:04:13;;;;;;;0.08;0.05;;;;;;;12.35;80.52;101705.09;5013558;28;96673;-29
2022/09/18 03:06:39;;;;;;;0.90;0.20;;;;;;;12.31;80.53;101698.97;5013309;28;96965;-30
2022/09/18 03:09:05;;;;;;;1.20;0.30;;;;;;;12.35;80.02;101705.09;5012985;28;100978;-30
2022/09/18 03:11:30;;;;;;;0.32;0.20;;;;;;;12.32;79.88;101688.03;5013294;28;100817;-29
2022/09/18 03:13:56;;;;;;;4.13;0.30;;;;;;;12.35;80.04;101686.06;5014267;28;96821;-29
2022/09/18 03:16:21;;;;;;;0.32;0.00;;;;;;;12.37;79.70;101689.56;5014775;28;96974;-29
2022/09/18 03:18:46;;;;;;;0.55;0.10;;;;;;;12.36;79.68;101694.16;5019925;27;126623;-29
2022/09/18 03:21:12;;;;;;;0.40;0.10;;;;;;;12.38;79.63;101689.50;5053963;27;126775;-30
2022/09/18 03:23:37;;;;;;;0.73;0.35;;;;;;;12.41;79.45;101688.44;5055021;27;96640;-32
2022/09/18 03:26:02;;;;;;;1.58;0.32;;;;;;;12.40;79.73;101684.00;5054819;27;96946;-29
2022/09/18 03:28:30;;;;;;;0.15;0.10;;;;;;;12.42;79.84;101682.03;5054374;27;97922;-31
2022/09/18 03:30:55;;;;;;;0.73;0.30;;;;;;;12.39;79.79;101687.66;5036356;27;100812;-29
2022/09/18 03:33:21;;;;;;;3.10;0.28;;;;;;;12.41;79.75;101697.47;5054653;27;98187;-29
2022/09/18 03:35:46;;;;;;;1.38;0.20;;;;;;;12.36;79.29;101688.72;5055274;27;96777;-30
2022/09/18 03:38:11;;;;;;;0.03;0.03;;;;;;;12.34;80.13;101685.19;5054298;27;113421;-29
2022/09/18 03:40:37;;;;;;;0.85;0.20;;;;;;;12.36;79.48;101696.00;5054222;27;99157;-29
2022/09/18 03:43:39;;;;;;;2.92;0.35;;;;;;;12.36;79.61;101691.44;5054420;27;96692;-30
2022/09/18 03:46:04;;;;;;;0.10;0.00;;;;;;;12.33;78.97;101702.47;5055038;27;96845;-30
2022/09/18 03:48:30;;;;;;;0.05;0.05;;;;;;;12.35;79.26;101691.50;5054605;27;97246;-30
2022/09/18 03:50:55;;;;;;;0.43;0.13;;;;;;;12.35;78.90;101696.94;5054180;27;112149;-30
2022/09/18 03:53:20;;;;;;;1.00;0.10;;;;;;;12.36;79.29;101693.28;5054491;27;96593;-30
2022/09/18 03:55:48;;;;;;;0.13;0.10;;;;;;;12.36;79.01;101690.56;5054349;27;96907;-30
2022/09/18 03:58:14;;;;;;;0.38;0.10;;;;;;;12.35;78.73;101686.97;5035993;27;101115;-30
2022/09/18 04:00:39;;;;;;;1.20;0.38;;;;;;;12.30;78.92;101676.34;5054595;27;97900;-29
2022/09/18 04:03:05;;;;;;;0.98;0.10;;;;;;;12.34;78.80;101685.19;5054397;27;96756;-29
2022/09/18 04:05:30;;;;;;;0.45;0.20;;;;;;;12.34;78.84;101682.47;5054433;27;96818;-30
2022/09/18 04:07:56;;;;;;;0.00;0.00;;;;;;;12.36;78.54;101686.00;5053797;27;97614;-30
2022/09/18 04:10:21;;;;;;;0.30;0.20;;;;;;;12.38;78.79;101702.22;5053792;27;99043;-30
2022/09/18 04:12:47;;;;;;;0.00;0.00;;;;;;;12.33;79.58;101697.91;5054056;27;96615;-29
2022/09/18 04:15:15;;;;;;;0.65;0.15;;;;;;;12.31;79.00;101702.53;5054621;27;96791;-30
2022/09/18 04:17:41;;;;;;;0.55;0.03;;;;;;;12.33;79.25;101700.63;5035764;27;100864;-29
2022/09/18 04:20:07;;;;;;;0.35;0.13;;;;;;;12.32;79.43;101704.31;5038558;27;100771;-30
2022/09/18 04:22:33;;;;;;;0.43;0.10;;;;;;;12.33;79.77;101705.19;5039287;27;96649;-30
2022/09/18 04:24:58;;;;;;;1.75;0.20;;;;;;;12.36;80.27;101705.00;5057215;27;115280;-29
2022/09/18 04:27:23;;;;;;;0.55;0.20;;;;;;;12.36;80.21;101701.44;5056921;27;99780;-30
2022/09/18 04:29:49;;;;;;;0.40;0.20;;;;;;;12.38;79.71;101705.81;5057323;27;97620;-31
2022/09/18 04:32:14;;;;;;;0.32;0.15;;;;;;;12.39;79.45;101698.53;5038023;27;109798;-30
2022/09/18 04:34:39;;;;;;;1.38;0.10;;;;;;;12.37;80.23;101703.16;5057537;27;96925;-30
2022/09/18 04:37:05;;;;;;;1.27;0.28;;;;;;;12.35;80.12;101696.94;5057307;27;97935;-29
2022/09/18 04:39:31;;;;;;;0.38;0.10;;;;;;;12.33;80.74;101687.03;5057136;27;97798;-30
2022/09/18 04:41:58;;;;;;;0.40;0.10;;;;;;;12.36;80.25;101687.84;5057332;27;96596;-29
2022/09/18 04:44:23;;;;;;;0.50;0.13;;;;;;;12.36;80.07;101693.28;5039069;27;96798;-31
2022/09/18 04:46:48;;;;;;;0.00;0.00;;;;;;;12.38;80.23;101686.78;5057139;27;98387;-30
2022/09/18 04:49:14;;;;;;;3.10;0.20;;;;;;;12.37;80.38;101686.88;5056782;27;109633;-30
2022/09/18 04:51:39;;;;;;;0.55;0.13;;;;;;;12.39;80.41;101683.09;5057419;27;96418;-30
2022/09/18 04:54:04;;;;;;;0.57;0.13;;;;;;;12.40;80.08;101684.88;5056751;27;103712;-29
2022/09/18 04:56:30;;;;;;;0.03;0.00;;;;;;;12.42;80.88;101685.66;5056652;27;97336;-30
2022/09/18 04:58:55;;;;;;;1.20;0.10;;;;;;;12.39;80.24;101683.09;5057043;27;97875;-30
2022/09/18 05:01:20;;;;;;;0.13;0.10;;;;;;;12.37;80.30;101685.03;5057020;27;96719;-30
2022/09/18 05:03:46;;;;;;;0.47;0.00;;;;;;;12.34;79.81;101685.19;5057492;27;96680;-30
2022/09/18 05:06:11;;;;;;;3.10;0.17;;;;;;;12.35;80.20;101683.34;5056478;27;108877;-29
2022/09/18 05:08:37;;;;;;;5.68;0.35;;;;;;;12.32;79.50;101674.44;5056288;27;109298;-30
2022/09/18 05:11:03;;;;;;;0.63;0.30;;;;;;;12.31;79.83;101667.22;5056913;27;96654;-29
2022/09/18 05:13:29;;;;;;;0.00;0.00;;;;;;;12.37;79.38;101678.72;5038905;27;96950;-29
2022/09/18 05:15:55;;;;;;;0.10;0.10;;;;;;;12.31;79.77;101667.22;5056589;27;97861;-30
2022/09/18 05:18:21;;;;;;;0.25;0.10;;;;;;;12.33;79.79;101668.03;5037979;27;98914;-29
2022/09/18 05:20:46;;;;;;;0.15;0.10;;;;;;;12.38;79.48;101667.78;5056213;27;96615;-29
2022/09/18 05:23:12;;;;;;;0.10;0.10;;;;;;;12.35;79.96;101669.75;5055871;27;114141;-30
2022/09/18 05:25:38;;;;;;;0.45;0.10;;;;;;;12.37;79.89;101671.47;5037948;27;101135;-31
2022/09/18 05:28:03;;;;;;;1.45;0.10;;;;;;;12.39;79.67;101665.91;5056405;27;98070;-30
2022/09/18 05:30:30;;;;;;;1.33;0.30;;;;;;;12.40;79.70;101665.84;5055238;27;96707;-29
2022/09/18 05:32:58;;;;;;;1.13;0.25;;;;;;;12.33;79.83;101662.59;5038487;27;96799;-30
2022/09/18 05:35:25;;;;;;;0.70;0.30;;;;;;;12.35;79.76;101689.69;5056247;27;99379;-29
2022/09/18 05:37:52;;;;;;;0.43;0.10;;;;;;;12.32;79.61;101688.03;5037994;27;101044;-30
2022/09/18 05:40:18;;;;;;;0.55;0.10;;;;;;;12.31;79.89;101683.53;5056630;27;96427;-30
2022/09/18 05:42:47;;;;;;;1.90;0.22;;;;;;;12.34;79.68;101687.91;5038212;27;96820;-31
2022/09/18 05:45:14;;;;;;;0.22;0.15;;;;;;;12.34;79.96;101685.19;5055499;27;99625;-30
2022/09/18 05:47:40;;;;;;;1.45;0.43;;;;;;;12.31;80.35;101679.94;5037593;27;100802;-30
2022/09/18 05:50:07;;;;;;;1.08;0.20;;;;;;;12.29;80.01;101671.00;5055956;27;96535;-30
2022/09/18 05:52:32;;;;;;;1.73;0.13;;;;;;;12.28;80.28;101672.84;5056412;27;96760;-29
2022/09/18 05:54:58;;;;;;;0.55;0.20;;;;;;;12.28;80.28;101667.41;5056366;27;97199;-30
2022/09/18 05:57:23;;;;;;;0.15;0.08;;;;;;;12.30;80.72;101662.78;5055856;27;99152;-30
2022/09/18 05:59:48;;;;;;;1.30;0.40;;;;;;;12.29;80.57;101657.41;5056181;27;96490;-30
2022/09/18 06:02:13;;;;;;;0.43;0.17;;;;;;;12.31;80.30;101652.78;5056354;27;96845;-29
2022/09/18 06:04:39;;;;;;;0.28;0.10;;;;;;;12.32;80.01;101647.28;5054722;27;122494;-31
2022/09/18 06:07:11;;;;;;;0.50;0.22;;;;;;;12.35;80.11;101646.22;5055798;27;97881;-29
2022/09/18 06:09:37;;;;;;;3.38;0.25;;;;;;;12.40;80.00;101640.53;5037110;27;96669;-29
2022/09/18 06:12:02;;;;;;;0.08;0.08;;;;;;;12.41;79.77;101648.56;5055877;27;96743;-32
2022/09/18 06:14:28;;;;;;;0.52;0.10;;;;;;;12.40;79.75;101645.97;5037284;27;98356;-30
2022/09/18 06:16:54;;;;;;;0.30;0.10;;;;;;;12.44;80.45;101644.78;5055514;27;114236;-30
2022/09/18 06:19:19;;;;;;;2.75;0.20;;;;;;;12.44;79.92;101653.84;5036831;27;96904;-30
2022/09/18 06:21:45;;;;;;;0.15;0.00;;;;;;;12.44;80.08;101642.09;5055743;27;96760;-30
2022/09/18 06:24:10;;;;;;;0.38;0.30;;;;;;;12.45;79.49;101641.13;5055059;27;116173;-30
2022/09/18 06:26:35;;;;;;;0.60;0.30;;;;;;;12.49;79.39;101645.44;5055421;27;99257;-30
2022/09/18 06:29:01;;;;;;;1.60;0.40;;;;;;;12.50;79.48;101650.78;5055666;27;96473;-30
2022/09/18 06:31:26;;;;;;;1.02;0.22;;;;;;;12.53;79.33;101653.31;5055409;27;103668;-29
2022/09/18 06:33:51;;;;;;;0.10;0.10;;;;;;;12.57;79.18;101658.59;5055048;27;98020;-30
2022/09/18 06:36:17;;;;;;;1.95;0.00;;;;;;;12.58;79.54;101655.75;5055085;27;97682;-30
2022/09/18 06:38:42;;;;;;;1.08;0.20;;;;;;;12.59;79.47;101652.09;5056102;27;96446;-29
2022/09/18 06:41:07;;;;;;;0.65;0.20;;;;;;;12.62;79.49;101649.19;5054895;27;96948;-30
2022/09/18 06:43:34;;;;;;;0.00;0.00;;;;;;;12.68;79.44;101656.09;5055255;27;97616;-30
2022/09/18 06:45:59;;;;;;;0.20;0.13;;;;;;;12.74;79.61;101647.63;5036824;27;100974;-30
2022/09/18 06:48:25;;;;;;;0.32;0.10;;;;;;;12.74;79.24;101645.75;5055474;27;96525;-29
2022/09/18 06:50:55;;;;;;;0.10;0.00;;;;;;;12.80;79.37;101638.22;5055890;27;96761;-30
2022/09/18 06:53:22;;;;;;;0.63;0.43;;;;;;;12.80;79.51;101630.97;5036736;27;100793;-29
2022/09/18 06:55:47;;;;;;;0.95;0.20;;;;;;;12.80;79.32;101630.97;5036690;27;101264;-29
2022/09/18 06:58:15;;;;;;;0.20;0.20;;;;;;;12.82;79.16;101631.72;5054734;27;96506;-29
2022/09/18 07:00:40;;;;;;;0.70;0.20;;;;;;;12.82;79.12;101633.56;5036926;27;96907;-29
2022/09/18 07:03:06;;;;;;;0.52;0.15;;;;;;;12.86;78.58;101644.19;5054642;27;99177;-31
2022/09/18 07:05:31;;;;;;;0.73;0.38;;;;;;;12.87;78.47;101654.09;5055008;27;96807;-29
2022/09/18 07:07:57;;;;;;;0.85;0.10;;;;;;;12.88;78.21;101664.00;5055182;27;96636;-31
2022/09/18 07:10:24;;;;;;;1.85;0.47;;;;;;;12.87;78.40;101664.09;5036770;27;96816;-31
2022/09/18 07:12:54;;;;;;;0.82;0.25;;;;;;;12.85;78.82;101666.03;5036285;27;100734;-31
2022/09/18 07:15:20;;;;;;;0.20;0.10;;;;;;;12.83;79.09;101668.84;5036983;27;100707;-29
2022/09/18 07:17:45;;;;;;;1.92;0.38;;;;;;;12.84;79.80;101662.41;5054926;27;96790;-30
2022/09/18 07:20:12;;;;;;;1.55;0.20;;;;;;;12.88;79.48;101664.00;5054577;27;96824;-30
2022/09/18 07:22:38;;;;;;;1.02;0.43;;;;;;;12.92;79.36;101660.16;5035946;27;100925;-30
2022/09/18 07:25:05;;;;;;;0.98;0.20;;;;;;;12.95;79.29;101659.09;5036327;27;100971;-29
2022/09/18 07:27:31;;;;;;;5.05;0.43;;;;;;;12.98;79.12;101658.91;5054972;27;96613;-30
2022/09/18 07:29:56;;;;;;;1.45;0.40;;;;;;;13.02;79.13;101655.03;5054847;27;96837;-30
2022/09/18 07:32:23;;;;;;;0.57;0.20;;;;;;;13.04;79.45;101644.06;5036243;27;101032;-29
2022/09/18 07:34:48;;;;;;;0.10;0.10;;;;;;;13.10;79.20;101639.13;5036062;27;100881;-30
2022/09/18 07:37:15;;;;;;;2.88;0.38;;;;;;;13.12;79.00;101645.34;5054846;27;96634;-31
2022/09/18 07:39:41;;;;;;;0.80;0.28;;;;;;;13.16;79.17;101640.63;5036827;27;96783;-30
2022/09/18 07:42:07;;;;;;;1.30;0.17;;;;;;;13.18;79.11;101639.56;5036207;27;100913;-29
2022/09/18 07:44:33;;;;;;;0.47;0.22;;;;;;;13.21;79.02;101656.69;5054116;27;106146;-32
2022/09/18 07:46:59;;;;;;;0.30;0.10;;;;;;;13.20;79.47;101657.63;5053858;27;96623;-30
2022/09/18 07:49:24;;;;;;;0.65;0.13;;;;;;;13.17;78.50;101661.41;5054766;27;96742;-29
2022/09/18 07:51:50;;;;;;;2.38;0.22;;;;;;;13.14;78.43;101664.31;5054449;27;97447;-30
2022/09/18 07:54:15;;;;;;;0.85;0.28;;;;;;;13.08;78.53;101668.25;5056518;27;99144;-30
2022/09/18 07:56:41;;;;;;;1.25;0.10;;;;;;;13.00;79.23;101670.56;5058299;27;96723;-29
2022/09/18 07:59:06;;;;;;;0.10;0.10;;;;;;;12.94;79.45;101652.78;5058236;27;96768;-29
2022/09/18 08:01:33;;;;;;;0.10;0.10;;;;;;;12.92;79.87;101641.13;5057737;27;97903;-30
2022/09/18 08:04:00;;;;;;;0.22;0.08;;;;;;;12.91;79.74;101638.47;5039547;27;100925;-30
2022/09/18 08:06:25;;;;;;;0.10;0.10;;;;;;;12.94;79.77;101639.19;5039965;27;96741;-29
2022/09/18 08:08:50;;;;;;;0.15;0.10;;;;;;;12.98;79.67;101633.56;5039475;27;96740;-30
2022/09/18 08:11:15;;;;;;;3.08;0.20;;;;;;;13.06;79.72;101644.84;5056975;27;107177;-29
2022/09/18 08:13:41;;;;;;;0.20;0.13;;;;;;;13.07;79.23;101658.38;5056905;27;116550;-30
2022/09/18 08:16:06;;;;;;;1.15;0.28;;;;;;;13.12;80.31;101682.56;5057766;27;96743;-30
2022/09/18 08:18:31;;;;;;;1.65;0.22;;;;;;;13.04;80.37;101680.31;5056814;27;112436;-29
2022/09/18 08:20:57;;;;;;;0.05;0.05;;;;;;;12.99;80.70;101685.16;5039365;27;101195;-30
2022/09/18 08:23:22;;;;;;;3.30;0.28;;;;;;;12.93;80.76;101682.78;5057478;27;97816;-30
2022/09/18 08:25:48;;;;;;;0.55;0.17;;;;;;;12.89;80.54;101671.19;5057241;27;96940;-31
2022/09/18 08:28:14;;;;;;;0.38;0.15;;;;;;;12.91;80.44;101680.13;5058069;27;96819;-29
2022/09/18 08:30:39;;;;;;;0.82;0.15;;;;;;;12.91;81.15;101673.81;5056695;27;113772;-30
2022/09/18 08:33:07;;;;;;;2.47;0.20;;;;;;;12.93;81.10;101670.03;5038882;27;98914;-30
2022/09/18 08:35:33;;;;;;;0.60;0.22;;;;;;;12.94;81.02;101674.53;5038740;27;96644;-30
2022/09/18 08:37:59;;;;;;;0.50;0.22;;;;;;;12.93;81.20;101659.16;5039036;27;96859;-30
2022/09/18 08:40:50;;;;;;;0.50;0.25;;;;;;;12.97;81.67;101668.03;5039171;27;97982;-30
2022/09/18 08:43:46;;;;;;;0.10;0.05;;;;;;;13.02;80.98;101679.53;5038735;27;101025;-29
2022/09/18 08:46:40;;;;;;;0.45;0.13;;;;;;;13.07;81.22;101663.81;5057662;27;96493;-29
2022/09/18 08:49:27;;;;;;;0.55;0.10;;;;;;;13.08;80.29;101660.09;5057533;27;96535;-29
2022/09/18 08:52:08;;;;;;;0.47;0.20;;;;;;;13.12;79.93;101667.13;5038686;27;100858;-31
2022/09/18 08:54:44;;;;;;;1.20;0.23;;;;;;;13.18;79.87;101665.91;5039099;27;101030;-29
2022/09/18 08:57:15;;;;;;;0.10;0.08;;;;;;;13.22;79.97;101663.84;5038877;27;96614;-29
2022/09/18 08:59:47;;;;;;;0.00;0.00;;;;;;;13.21;79.49;101660.28;5038703;27;96729;-31
2022/09/18 09:02:36;;;;;;;1.45;0.20;;;;;;;13.27;79.49;101650.84;5056256;27;98126;-30
2022/09/18 09:05:06;;;;;;;0.65;0.13;;;;;;;13.31;79.30;101655.19;5038047;27;98905;-31
2022/09/18 09:07:31;;;;;;;0.60;0.25;;;;;;;13.33;79.26;101647.81;5037221;27;97023;-29
2022/09/18 09:10:27;;;;;;;0.88;0.10;;;;;;;13.37;79.38;101646.63;5056747;27;96849;-29
2022/09/18 09:13:30;;;;;;;0.00;0.00;;;;;;;13.42;79.13;101644.53;5038073;27;101026;-29
2022/09/18 09:16:04;;;;;;;2.50;0.15;;;;;;;13.46;78.85;101639.75;5056528;27;99121;-31
2022/09/18 09:18:51;;;;;;;4.03;0.15;;;;;;;13.51;79.04;101648.53;5037968;27;96822;-30
2022/09/18 09:21:27;;;;;;;2.53;0.10;;;;;;;13.58;78.81;101639.00;5057565;27;96419;-29
2022/09/18 09:24:16;;;;;;;0.00;0.00;;;;;;;13.60;78.59;101634.34;5038129;27;100836;-31
2022/09/18 09:26:42;;;;;;;0.30;0.13;;;;;;;13.69;78.66;101641.94;5054439;27;97892;-31
2022/09/18 09:29:27;;;;;;;0.10;0.00;;;;;;;13.74;78.20;101631.66;5036812;27;97188;-31
2022/09/18 09:31:57;;;;;;;1.48;0.32;;;;;;;13.77;77.86;101633.31;5038044;27;96835;-29
2022/09/18 09:34:49;;;;;;;0.40;0.10;;;;;;;13.84;77.90;101640.13;5037421;27;101297;-30
2022/09/18 09:37:20;;;;;;;0.20;0.10;;;;;;;13.86;77.07;101632.72;5056332;27;98075;-30
2022/09/18 09:39:56;;;;;;;5.93;0.20;;;;;;;13.94;77.27;101637.69;5038264;27;96551;-29
2022/09/18 09:42:39;;;;;;;5.75;0.45;;;;;;;13.99;76.70;101631.00;5038245;27;96728;-30
2022/09/18 09:45:23;;;;;;;0.25;0.08;;;;;;;14.13;77.16;101631.94;5038007;27;100817;-31
2022/09/18 09:48:23;;;;;;;1.13;0.17;;;;;;;14.21;76.50;101633.22;5056330;27;99144;-30
2022/09/18 09:51:01;;;;;;;1.17;0.28;;;;;;;14.20;75.81;101644.19;5056304;27;96688;-30
2022/09/18 09:53:27;;;;;;;2.35;0.22;;;;;;;14.12;74.65;101646.56;5038076;27;96857;-29
2022/09/18 09:56:12;;;;;;;1.95;0.25;;;;;;;14.07;75.06;101648.69;5055247;27;99421;-29
2022/09/18 09:59:08;;;;;;;0.22;0.10;;;;;;;14.06;75.18;101660.56;5037621;27;100665;-29
2022/09/18 10:01:51;;;;;;;0.20;0.08;;;;;;;14.03;75.43;101648.00;5056663;27;96480;-30
2022/09/18 10:04:36;;;;;;;1.15;0.17;;;;;;;13.97;75.21;101646.56;5056007;27;96790;-31
2022/09/18 10:07:21;;;;;;;0.32;0.10;;;;;;;13.91;75.81;101654.22;5037419;27;101190;-29
2022/09/18 10:10:11;;;;;;;1.17;0.20;;;;;;;13.84;76.49;101648.28;5037381;27;99021;-30
2022/09/18 10:12:53;;;;;;;0.17;0.05;;;;;;;13.77;76.74;101638.75;5055353;27;96750;-30
2022/09/18 10:15:21;;;;;;;1.67;0.28;;;;;;;13.73;77.30;101651.69;5037769;27;96825;-29
2022/09/18 10:17:50;;;;;;;0.40;0.10;;;;;;;13.66;77.18;101657.59;5036833;27;101210;-29
2022/09/18 10:20:20;;;;;;;0.95;0.10;;;;;;;13.59;77.37;101655.25;5036829;27;101031;-30
2022/09/18 10:22:46;;;;;;;2.00;0.30;;;;;;;13.57;77.94;101661.78;5036996;27;96656;-30
2022/09/18 10:25:24;;;;;;;0.38;0.10;;;;;;;13.52;78.20;101647.56;5037334;27;96898;-29
2022/09/18 10:27:49;;;;;;;0.32;0.20;;;;;;;13.48;78.35;101652.31;5055748;27;97198;-29
2022/09/18 10:30:15;;;;;;;0.98;0.10;;;;;;;13.53;78.61;101655.63;5036637;27;109487;-29
2022/09/18 10:32:40;;;;;;;0.88;0.10;;;;;;;13.59;78.75;101649.81;5055696;27;96612;-30
2022/09/18 10:35:27;;;;;;;2.10;0.15;;;;;;;13.67;79.27;101662.06;5055913;27;96797;-29
2022/09/18 10:37:52;;;;;;;0.43;0.08;;;;;;;13.71;79.05;101650.03;5055140;27;97573;-29
2022/09/18 10:40:37;;;;;;;2.92;0.30;;;;;;;13.67;79.36;101641.16;5055831;27;97404;-29
2022/09/18 10:43:03;;;;;;;2.30;0.15;;;;;;;13.70;79.56;101657.31;5055805;27;97080;-29
2022/09/18 10:45:36;;;;;;;0.13;0.13;;;;;;;13.67;79.39;101637.56;5037163;27;96854;-30
2022/09/18 10:48:16;;;;;;;2.83;0.35;;;;;;;13.62;79.24;101632.41;5036145;27;101145;-29
2022/09/18 10:51:14;;;;;;;0.93;0.30;;;;;;;13.67;79.72;101645.75;5055084;27;98116;-30
2022/09/18 10:53:41;;;;;;;1.02;0.30;;;;;;;13.67;79.50;101640.28;5035544;27;96791;-30
2022/09/18 10:56:20;;;;;;;4.40;0.55;;;;;;;13.67;79.81;101643.88;5037149;27;96868;-30
2022/09/18 10:58:46;;;;;;;4.28;0.32;;;;;;;13.67;79.54;101664.81;5036232;27;101026;-29
2022/09/18 11:01:12;;;;;;;1.08;0.25;;;;;;;13.66;79.62;101687.53;5055214;27;97840;-29
2022/09/18 11:03:57;;;;;;;2.22;0.30;;;;;;;13.58;80.37;101682.56;5036885;27;96742;-29
2022/09/18 11:06:25;;;;;;;0.77;0.30;;;;;;;13.46;79.50;101692.34;5037230;27;96557;-30
2022/09/18 11:08:55;;;;;;;1.23;0.17;;;;;;;13.35;80.10;101692.13;5036179;27;100970;-29
2022/09/18 11:11:23;;;;;;;1.58;0.40;;;;;;;13.36;80.61;101688.44;5036394;27;99092;-31
2022/09/18 11:14:16;;;;;;;0.75;0.15;;;;;;;13.35;80.86;101703.03;5054527;27;96521;-31
2022/09/18 11:16:45;;;;;;;1.15;0.28;;;;;;;13.34;80.95;101687.66;5055200;27;96769;-29
2022/09/18 11:19:11;;;;;;;1.17;0.22;;;;;;;13.34;81.91;101695.81;5035744;27;100917;-31
2022/09/18 11:21:59;;;;;;;5.57;0.38;;;;;;;13.29;81.83;101700.66;5054387;27;99275;-29
2022/09/18 11:24:31;;;;;;;0.95;0.47;;;;;;;13.23;81.73;101700.97;5055145;27;96519;-30
2022/09/18 11:26:59;;;;;;;1.38;0.20;;;;;;;13.20;81.43;101695.72;5055154;27;96794;-31
2022/09/18 11:29:35;;;;;;;1.67;0.25;;;;;;;13.16;81.94;101695.91;5058108;27;99382;-29
2022/09/18 11:32:04;;;;;;;0.75;0.30;;;;;;;13.21;81.90;101694.78;5040020;27;101358;-29
2022/09/18 11:34:37;;;;;;;0.93;0.50;;;;;;;13.18;81.90;101693.97;5058716;27;96457;-30
2022/09/18 11:37:13;;;;;;;0.73;0.57;;;;;;;13.20;81.83;101688.41;5040512;27;96523;-31
2022/09/18 11:39:49;;;;;;;0.70;0.30;;;;;;;13.20;81.44;101690.28;5039450;27;101093;-29